createdAt,value
2023-02-27T00:01:24.886Z,90.30
2023-02-27T00:03:51.368Z,90.30
2023-02-27T00:06:18.183Z,90.40
2023-02-27T00:08:45.857Z,90.60
2023-02-27T00:11:12.019Z,90.50
2023-02-27T00:13:38.173Z,90.30
2023-02-27T00:16:06.183Z,90.60
2023-02-27T00:18:33.935Z,90.90
2023-02-27T00:21:00.580Z,90.70
2023-02-27T00:23:28.163Z,90.80
2023-02-27T00:25:56.053Z,90.70
2023-02-27T00:28:22.903Z,90.60
2023-02-27T00:30:49.035Z,90.80
2023-02-27T00:33:15.688Z,91.00
2023-02-27T00:35:41.905Z,91.00
2023-02-27T00:38:08.550Z,90.70
2023-02-27T00:40:37.729Z,91.10
2023-02-27T00:43:04.220Z,90.90
2023-02-27T00:45:30.326Z,91.30
2023-02-27T00:47:56.942Z,91.10
2023-02-27T00:50:23.677Z,90.80
2023-02-27T00:52:50.685Z,90.90
2023-02-27T00:55:17.975Z,91.00
2023-02-27T00:57:44.899Z,90.70
2023-02-27T01:00:13.838Z,90.90
2023-02-27T01:02:40.078Z,91.10
2023-02-27T01:05:06.504Z,91.40
2023-02-27T01:07:32.667Z,91.20
2023-02-27T01:09:59.524Z,91.20
2023-02-27T01:12:25.742Z,90.80
2023-02-27T01:14:51.953Z,91.00
2023-02-27T01:17:18.283Z,91.10
2023-02-27T01:19:44.470Z,91.30
2023-02-27T01:22:11.094Z,91.20
2023-02-27T01:24:37.230Z,91.30
2023-02-27T01:27:03.554Z,91.20
2023-02-27T01:29:30.595Z,91.20
2023-02-27T01:31:57.329Z,91.10
2023-02-27T01:34:24.450Z,91.10
2023-02-27T01:36:50.721Z,91.50
2023-02-27T01:39:18.037Z,91.10
2023-02-27T01:41:44.396Z,90.90
2023-02-27T01:44:12.758Z,91.40
2023-02-27T01:46:40.533Z,91.30
2023-02-27T01:49:40.569Z,91.00
2023-02-27T01:52:08.632Z,91.10
2023-02-27T01:54:40.630Z,91.00
2023-02-27T01:57:06.947Z,90.60
2023-02-27T01:59:34.802Z,90.90
2023-02-27T02:02:10.717Z,90.80
2023-02-27T02:04:37.933Z,91.20
2023-02-27T02:07:09.743Z,91.10
2023-02-27T02:09:40.109Z,90.90
2023-02-27T02:12:07.002Z,90.70
2023-02-27T02:14:33.750Z,90.90
2023-02-27T02:18:40.211Z,90.50
2023-02-27T02:27:46.183Z,90.50
2023-02-27T02:30:47.514Z,90.50
2023-02-27T02:38:42.710Z,90.30
2023-02-27T02:41:40.363Z,90.30
2023-02-27T02:45:40.302Z,90.60
2023-02-27T02:48:32.672Z,90.10
2023-02-27T02:51:15.987Z,90.30
2023-02-27T02:54:21.577Z,90.40
2023-02-27T02:56:53.415Z,90.40
2023-02-27T02:59:32.585Z,90.50
2023-02-27T03:02:21.366Z,90.10
2023-02-27T03:05:09.148Z,90.10
2023-02-27T03:08:18.885Z,90.50
2023-02-27T03:10:58.042Z,90.60
2023-02-27T03:15:12.225Z,90.30
2023-02-27T03:18:20.611Z,90.70
2023-02-27T03:20:57.226Z,90.50
2023-02-27T03:23:31.056Z,90.60
2023-02-27T03:25:58.565Z,90.70
2023-02-27T03:28:28.835Z,90.60
2023-02-27T03:31:09.902Z,90.40
2023-02-27T03:33:40.487Z,90.60
2023-02-27T03:36:12.677Z,90.80
2023-02-27T03:38:45.129Z,90.30
2023-02-27T03:41:27.127Z,90.60
2023-02-27T03:44:10.869Z,90.50
2023-02-27T03:46:37.398Z,90.60
2023-02-27T03:49:03.617Z,90.20
2023-02-27T03:51:31.300Z,90.90
2023-02-27T03:54:16.469Z,90.10
2023-02-27T03:56:53.544Z,90.30
2023-02-27T03:59:19.682Z,90.40
2023-02-27T04:01:45.944Z,90.70
2023-02-27T04:04:14.167Z,90.70
2023-02-27T04:07:03.062Z,90.80
2023-02-27T04:10:10.859Z,90.90
2023-02-27T04:13:40.021Z,90.60
2023-02-27T04:23:14.717Z,90.70
2023-02-27T04:26:07.858Z,91.00
2023-02-27T04:28:48.220Z,91.00
2023-02-27T04:31:23.841Z,90.50
2023-02-27T04:34:02.607Z,90.20
2023-02-27T04:36:50.444Z,90.30
2023-02-27T04:39:31.099Z,90.50
2023-02-27T04:42:02.726Z,90.60
2023-02-27T04:44:29.715Z,90.60
2023-02-27T04:46:56.926Z,90.80
2023-02-27T04:49:32.631Z,90.80
2023-02-27T04:52:14.607Z,90.80
2023-02-27T04:56:20.269Z,91.10
2023-02-27T04:58:56.381Z,91.50
2023-02-27T05:01:56.835Z,91.30
2023-02-27T05:04:25.108Z,91.30
2023-02-27T05:06:52.782Z,91.40
2023-02-27T05:09:23.718Z,91.60
2023-02-27T05:12:24.463Z,91.50
2023-02-27T05:16:29.523Z,91.50
2023-02-27T05:18:55.758Z,91.50
2023-02-27T05:23:00.832Z,91.80
2023-02-27T05:25:32.944Z,91.80
2023-02-27T05:28:09.848Z,92.00
2023-02-27T05:31:09.847Z,91.90
2023-02-27T05:33:44.150Z,91.90
2023-02-27T05:36:22.553Z,92.20
2023-02-27T05:38:59.564Z,92.50
2023-02-27T05:41:29.602Z,92.10
2023-02-27T05:44:11.088Z,92.10
2023-02-27T05:46:41.021Z,91.80
2023-02-27T05:49:11.468Z,92.00
2023-02-27T05:51:37.755Z,92.10
2023-02-27T05:54:15.980Z,92.20
2023-02-27T05:56:43.176Z,91.80
2023-02-27T05:59:17.706Z,92.40
2023-02-27T06:01:46.197Z,92.30
2023-02-27T06:04:12.618Z,92.30
2023-02-27T06:06:41.269Z,92.20
2023-02-27T06:09:08.153Z,92.70
2023-02-27T06:11:34.774Z,92.70
2023-02-27T06:14:00.908Z,92.20
2023-02-27T06:16:28.726Z,92.00
2023-02-27T06:18:55.241Z,92.20
2023-02-27T06:21:21.657Z,92.40
2023-02-27T06:23:48.165Z,92.20
2023-02-27T06:26:15.074Z,92.10
2023-02-27T06:28:41.805Z,92.10
2023-02-27T06:31:08.162Z,92.20
2023-02-27T06:33:35.148Z,92.00
2023-02-27T06:36:01.497Z,91.80
2023-02-27T06:38:27.700Z,92.00
2023-02-27T06:40:54.921Z,92.00
2023-02-27T06:43:22.805Z,92.20
2023-02-27T06:45:52.345Z,92.30
2023-02-27T06:48:18.547Z,92.20
2023-02-27T06:50:45.845Z,92.10
2023-02-27T06:53:12.048Z,92.60
2023-02-27T06:55:39.252Z,92.70
2023-02-27T06:58:05.379Z,92.40
2023-02-27T07:00:31.635Z,92.40
2023-02-27T07:02:57.814Z,92.30
2023-02-27T07:05:24.630Z,92.40
2023-02-27T07:07:52.104Z,92.30
2023-02-27T07:10:19.325Z,92.40
2023-02-27T07:12:48.630Z,91.90
2023-02-27T07:15:14.891Z,92.20
2023-02-27T07:17:41.072Z,92.00
2023-02-27T07:20:11.766Z,92.00
2023-02-27T07:22:43.731Z,92.00
2023-02-27T07:25:10.268Z,92.00
2023-02-27T07:27:36.793Z,92.20
2023-02-27T07:30:04.764Z,92.20
2023-02-27T07:32:30.958Z,92.10
2023-02-27T07:34:57.810Z,92.00
2023-02-27T07:37:28.170Z,91.80
2023-02-27T07:39:55.733Z,91.90
2023-02-27T07:42:22.774Z,91.90
2023-02-27T07:44:50.823Z,91.60
2023-02-27T07:47:17.189Z,91.50
2023-02-27T07:49:44.983Z,91.50
2023-02-27T07:52:11.371Z,91.30
2023-02-27T07:54:40.056Z,91.40
2023-02-27T07:57:06.327Z,91.20
2023-02-27T07:59:34.069Z,91.50
2023-02-27T08:02:03.407Z,91.10
2023-02-27T08:04:30.353Z,91.30
2023-02-27T08:06:58.115Z,91.20
2023-02-27T08:09:24.424Z,91.10
2023-02-27T08:11:53.785Z,90.60
2023-02-27T08:14:20.059Z,95.80
2023-02-27T08:16:46.743Z,90.50
2023-02-27T08:19:14.104Z,91.00
2023-02-27T08:21:41.611Z,90.90
2023-02-27T08:24:08.076Z,90.90
2023-02-27T08:26:35.135Z,90.60
2023-02-27T08:29:01.365Z,91.00
2023-02-27T08:31:27.661Z,90.30
2023-02-27T08:34:01.073Z,90.40
2023-02-27T08:36:37.412Z,90.10
2023-02-27T08:39:04.571Z,89.40
2023-02-27T08:41:30.930Z,88.80
2023-02-27T08:43:57.107Z,88.90
2023-02-27T08:46:24.818Z,87.90
2023-02-27T08:48:51.633Z,87.40
2023-02-27T08:51:18.292Z,86.80
2023-02-27T08:53:44.515Z,86.90
2023-02-27T08:56:11.124Z,85.10
2023-02-27T08:58:37.325Z,83.40
2023-02-27T09:01:05.395Z,85.80
2023-02-27T09:03:31.654Z,82.40
2023-02-27T09:05:58.834Z,85.00
2023-02-27T09:08:25.813Z,85.20
2023-02-27T09:10:57.420Z,80.40
2023-02-27T09:13:24.209Z,83.30
2023-02-27T09:15:50.611Z,82.90
2023-02-27T09:18:16.863Z,79.00
2023-02-27T09:20:43.376Z,80.00
2023-02-27T09:23:09.925Z,76.30
2023-02-27T09:25:36.312Z,79.60
2023-02-27T09:28:02.969Z,81.50
2023-02-27T09:30:29.881Z,82.10
2023-02-27T09:32:56.084Z,83.90
2023-02-27T09:35:22.397Z,84.10
2023-02-27T09:37:49.481Z,85.00
2023-02-27T09:40:29.880Z,84.50
2023-02-27T09:42:59.920Z,84.30
2023-02-27T09:45:31.195Z,83.60
2023-02-27T09:48:45.245Z,83.50
2023-02-27T09:51:13.925Z,81.90
2023-02-27T09:53:42.247Z,82.70
2023-02-27T09:56:31.832Z,80.80
2023-02-27T09:59:10.069Z,80.70
2023-02-27T10:01:43.222Z,80.20
2023-02-27T10:05:55.641Z,80.30
2023-02-27T10:09:46.035Z,78.40
2023-02-27T10:12:40.229Z,78.90
2023-02-27T10:15:17.530Z,77.40
2023-02-27T10:17:50.804Z,77.00
2023-02-27T10:20:26.046Z,79.30
2023-02-27T10:22:52.474Z,78.00
2023-02-27T10:25:30.704Z,75.90
2023-02-27T10:28:03.357Z,76.60
2023-02-27T10:30:33.503Z,78.70
2023-02-27T10:33:28.240Z,76.30
2023-02-27T10:35:54.840Z,75.40
2023-02-27T10:38:33.404Z,77.30
2023-02-27T10:41:01.338Z,76.70
2023-02-27T10:43:28.245Z,75.70
2023-02-27T10:45:56.781Z,72.30
2023-02-27T10:48:23.560Z,71.90
2023-02-27T10:50:54.376Z,72.90
2023-02-27T10:53:27.426Z,72.50
2023-02-27T10:56:02.931Z,70.30
2023-02-27T10:58:34.574Z,71.10
2023-02-27T11:01:03.960Z,72.50
2023-02-27T11:03:33.699Z,73.50
2023-02-27T11:06:04.801Z,69.40
2023-02-27T11:08:33.019Z,70.80
2023-02-27T11:11:10.342Z,70.00
2023-02-27T11:13:42.175Z,71.50
2023-02-27T11:16:22.268Z,71.80
2023-02-27T11:18:50.686Z,68.70
2023-02-27T11:21:31.104Z,68.90
2023-02-27T11:24:04.044Z,66.90
2023-02-27T11:26:56.297Z,67.30
2023-02-27T11:29:22.533Z,66.90
2023-02-27T11:32:13.318Z,68.60
2023-02-27T11:34:46.490Z,69.70
2023-02-27T11:37:30.830Z,69.50
2023-02-27T11:40:14.904Z,68.30
2023-02-27T11:42:52.288Z,71.60
2023-02-27T11:46:09.291Z,69.60
2023-02-27T11:50:39.127Z,70.40
2023-02-27T11:53:27.219Z,71.90
2023-02-27T11:55:54.292Z,75.50
2023-02-27T11:58:22.394Z,77.20
2023-02-27T12:00:56.752Z,80.20
2023-02-27T12:03:48.659Z,79.80
2023-02-27T12:06:26.277Z,79.50
2023-02-27T12:08:56.290Z,79.00
2023-02-27T12:11:27.328Z,77.40
2023-02-27T12:19:09.748Z,78.00
2023-02-27T12:22:03.787Z,78.70
2023-02-27T12:24:41.743Z,79.50
2023-02-27T12:29:03.332Z,78.40
2023-02-27T12:31:51.517Z,78.10
2023-02-27T12:34:39.112Z,76.90
2023-02-27T12:37:12.151Z,78.10
2023-02-27T12:39:39.636Z,79.50
2023-02-27T12:43:03.007Z,82.30
2023-02-27T12:45:52.240Z,81.00
2023-02-27T12:48:36.868Z,77.00
2023-02-27T12:53:58.115Z,78.00
2023-02-27T12:56:31.241Z,77.30
2023-02-27T12:59:23.786Z,75.10
2023-02-27T13:05:49.676Z,75.20
2023-02-27T13:08:47.410Z,76.30
2023-02-27T13:11:43.646Z,76.80
2023-02-27T13:14:27.368Z,76.60
2023-02-27T13:17:02.737Z,76.30
2023-02-27T13:19:40.304Z,77.10
2023-02-27T13:23:48.310Z,78.20
2023-02-27T13:26:46.311Z,78.20
2023-02-27T13:29:17.611Z,78.60
2023-02-27T13:32:27.302Z,78.70
2023-02-27T13:37:57.102Z,78.90
2023-02-27T13:40:33.446Z,79.10
2023-02-27T13:43:52.066Z,79.60
2023-02-27T13:46:37.602Z,79.50
2023-02-27T13:49:29.525Z,78.70
2023-02-27T13:51:59.160Z,80.00
2023-02-27T13:54:33.995Z,82.30
2023-02-27T13:57:18.174Z,80.80
2023-02-27T13:59:55.826Z,80.40
2023-02-27T14:02:57.896Z,80.50
2023-02-27T14:05:33.944Z,89.70
2023-02-27T14:08:16.152Z,80.20
2023-02-27T14:11:03.178Z,81.20
2023-02-27T14:14:06.683Z,80.00
2023-02-27T14:17:08.289Z,79.70
2023-02-27T14:19:47.872Z,79.70
2023-02-27T14:22:40.669Z,80.70
2023-02-27T14:25:22.103Z,80.20
2023-02-27T14:27:56.791Z,81.10
2023-02-27T14:30:35.007Z,80.50
2023-02-27T14:33:12.071Z,79.90
2023-02-27T14:35:38.292Z,80.00
2023-02-27T14:38:10.722Z,78.50
2023-02-27T14:40:42.086Z,80.10
2023-02-27T14:44:28.372Z,80.50
2023-02-27T14:46:55.831Z,78.70
2023-02-27T14:49:29.823Z,79.80
2023-02-27T14:51:56.803Z,79.20
2023-02-27T14:54:24.180Z,78.20
2023-02-27T14:56:57.364Z,78.50
2023-02-27T14:59:28.631Z,78.70
2023-02-27T15:01:56.535Z,76.40
2023-02-27T15:04:25.537Z,75.90
2023-02-27T15:06:52.498Z,75.20
2023-02-27T15:09:44.199Z,76.30
2023-02-27T15:12:15.520Z,75.90
2023-02-27T15:14:43.677Z,75.90
2023-02-27T15:17:23.686Z,76.50
2023-02-27T15:19:52.756Z,73.60
2023-02-27T15:22:36.168Z,72.90
2023-02-27T15:25:07.597Z,72.10
2023-02-27T15:27:36.368Z,73.40
2023-02-27T15:30:04.065Z,72.70
2023-02-27T15:32:38.107Z,74.60
2023-02-27T15:35:51.525Z,75.60
2023-02-27T15:38:37.665Z,76.60
2023-02-27T15:41:07.029Z,79.00
2023-02-27T15:43:35.189Z,76.80
2023-02-27T15:46:02.571Z,75.30
2023-02-27T15:48:30.587Z,73.50
2023-02-27T15:50:57.891Z,73.90
2023-02-27T15:53:28.111Z,73.00
2023-02-27T15:56:00.187Z,74.20
2023-02-27T15:58:33.927Z,73.80
2023-02-27T16:01:03.196Z,74.80
2023-02-27T16:03:35.790Z,74.30
2023-02-27T16:06:02.582Z,75.00
2023-02-27T16:08:30.147Z,74.90
2023-02-27T16:10:57.488Z,75.80
2023-02-27T16:13:37.108Z,76.50
2023-02-27T16:16:35.178Z,77.00
2023-02-27T16:19:26.846Z,77.50
2023-02-27T16:22:19.787Z,78.20
2023-02-27T16:24:45.995Z,77.70
2023-02-27T16:27:17.370Z,78.10
2023-02-27T16:29:45.535Z,78.70
2023-02-27T16:32:40.862Z,79.60
2023-02-27T16:35:16.091Z,79.60
2023-02-27T16:37:44.940Z,79.80
2023-02-27T16:40:16.112Z,80.80
2023-02-27T16:42:43.010Z,80.90
2023-02-27T16:45:14.506Z,81.10
2023-02-27T16:47:40.836Z,81.90
2023-02-27T16:50:16.195Z,82.00
2023-02-27T16:52:44.648Z,83.20
2023-02-27T16:55:11.446Z,82.70
2023-02-27T16:57:38.142Z,83.10
2023-02-27T17:00:09.434Z,82.60
2023-02-27T17:02:35.650Z,82.40
2023-02-27T17:05:02.431Z,81.70
2023-02-27T17:07:30.283Z,82.90
2023-02-27T17:09:57.887Z,82.30
2023-02-27T17:12:24.188Z,82.50
2023-02-27T17:14:52.681Z,83.10
2023-02-27T17:17:18.886Z,83.10
2023-02-27T17:19:46.169Z,83.60
2023-02-27T17:22:12.788Z,84.60
2023-02-27T17:24:40.912Z,84.00
2023-02-27T17:27:08.942Z,84.50
2023-02-27T17:29:37.139Z,85.20
2023-02-27T17:32:04.281Z,84.40
2023-02-27T17:34:31.726Z,86.20
2023-02-27T17:36:59.187Z,85.10
2023-02-27T17:39:25.429Z,85.90
2023-02-27T17:41:53.296Z,85.50
2023-02-27T17:44:20.346Z,85.30
2023-02-27T17:46:46.497Z,85.30
2023-02-27T17:49:14.420Z,85.50
2023-02-27T17:51:40.720Z,85.80
2023-02-27T17:54:08.006Z,85.10
2023-02-27T17:56:36.646Z,85.60
2023-02-27T17:59:03.633Z,84.70
2023-02-27T18:01:31.988Z,85.10
2023-02-27T18:03:58.952Z,84.70
2023-02-27T18:06:26.537Z,84.30
2023-02-27T18:08:54.508Z,83.80
2023-02-27T18:11:22.884Z,83.80
2023-02-27T18:13:51.660Z,84.70
2023-02-27T18:16:18.996Z,84.00
2023-02-27T18:18:47.776Z,84.60
2023-02-27T18:21:20.104Z,85.80
2023-02-27T18:23:47.403Z,86.40
2023-02-27T18:26:28.570Z,89.20
2023-02-27T18:29:00.822Z,91.20
2023-02-27T18:31:29.691Z,87.20
2023-02-27T18:36:27.332Z,95.10
2023-02-27T18:38:57.876Z,95.50
2023-02-27T18:41:25.818Z,96.10
2023-02-27T18:43:54.760Z,90.30
2023-02-27T18:46:23.057Z,93.20
2023-02-27T18:48:52.378Z,90.90
2023-02-27T18:51:20.507Z,97.10
2023-02-27T18:53:50.691Z,91.00
2023-02-27T18:56:20.389Z,91.40
2023-02-27T18:58:47.747Z,98.10
2023-02-27T19:01:20.606Z,91.40
2023-02-27T19:03:49.274Z,98.40
2023-02-27T19:11:22.739Z,91.70
2023-02-27T19:16:21.182Z,92.00
2023-02-27T19:21:16.169Z,99.90
2023-02-27T19:23:46.500Z,92.30
2023-02-27T19:26:20.951Z,93.40
2023-02-27T19:28:53.708Z,93.00
2023-02-27T19:31:27.318Z,93.00
2023-02-27T19:33:55.437Z,93.00
2023-02-27T19:36:24.380Z,92.80
2023-02-27T19:38:52.704Z,93.40
2023-02-27T19:41:23.559Z,93.50
2023-02-27T19:46:22.818Z,93.40
2023-02-27T19:48:51.556Z,93.60
2023-02-27T19:51:18.782Z,96.00
2023-02-27T19:53:47.857Z,99.70
2023-02-27T19:56:29.104Z,93.40
2023-02-27T20:01:30.816Z,93.40
2023-02-27T20:04:09.772Z,93.30
2023-02-27T20:06:43.691Z,93.20
2023-02-27T20:09:15.757Z,93.80
2023-02-27T20:11:43.253Z,93.40
2023-02-27T20:14:14.000Z,94.00
2023-02-27T20:16:46.955Z,99.90
2023-02-27T20:19:18.279Z,93.70
2023-02-27T20:21:48.640Z,93.90
2023-02-27T20:26:50.556Z,98.70
2023-02-27T20:29:19.620Z,94.30
2023-02-27T20:31:48.204Z,94.20
2023-02-27T20:34:21.480Z,94.20
2023-02-27T20:36:50.592Z,96.60
2023-02-27T20:39:18.395Z,94.60
2023-02-27T20:46:43.180Z,94.80
2023-02-27T20:49:15.264Z,94.70
2023-02-27T20:54:13.378Z,95.00
2023-02-27T20:56:42.857Z,97.10
2023-02-27T20:59:16.254Z,94.40
2023-02-27T21:01:50.561Z,93.90
2023-02-27T21:04:43.544Z,94.20
2023-02-27T21:07:12.121Z,94.40
2023-02-27T21:09:38.774Z,99.90
2023-02-27T21:12:07.475Z,94.20
2023-02-27T21:17:01.803Z,99.90
2023-02-27T21:19:31.748Z,99.90
2023-02-27T21:24:31.421Z,95.70
2023-02-27T21:26:59.382Z,92.60
2023-02-27T21:34:26.432Z,94.00
2023-02-27T21:39:25.296Z,93.40
2023-02-27T21:41:53.432Z,99.90
2023-02-27T21:44:21.469Z,93.70
2023-02-27T21:49:22.318Z,94.70
2023-02-27T21:54:17.365Z,94.80
2023-02-27T21:59:11.349Z,97.40
2023-02-27T22:01:37.821Z,95.00
2023-02-27T22:06:34.321Z,99.90
2023-02-27T22:09:03.804Z,93.60
2023-02-27T22:11:31.410Z,96.40
2023-02-27T22:13:58.916Z,96.80
2023-02-27T22:21:23.399Z,93.70
2023-02-27T22:23:50.305Z,93.80
2023-02-27T22:26:23.010Z,95.30
2023-02-27T22:28:51.267Z,94.10
2023-02-27T22:31:23.009Z,95.60
2023-02-27T22:33:51.997Z,93.00
2023-02-27T22:36:23.783Z,91.90
2023-02-27T22:41:22.574Z,93.20
2023-02-27T22:43:50.798Z,95.00
2023-02-27T22:46:25.833Z,92.20
2023-02-27T22:48:56.430Z,92.90
2023-02-27T22:53:55.180Z,93.30
2023-02-27T22:58:48.875Z,98.70
2023-02-27T23:01:21.802Z,98.50
2023-02-27T23:03:50.707Z,93.20
2023-02-27T23:06:20.041Z,99.90
2023-02-27T23:11:14.726Z,93.40
2023-02-27T23:13:40.968Z,99.80
2023-02-27T23:18:41.145Z,92.10
2023-02-27T23:21:07.964Z,92.10
2023-02-27T23:23:34.188Z,93.90
2023-02-27T23:26:01.798Z,96.00
2023-02-27T23:28:29.706Z,92.80
2023-02-27T23:35:51.296Z,96.40
2023-02-27T23:48:06.516Z,95.50
2023-02-27T23:50:38.218Z,99.90
2023-02-27T23:55:34.672Z,93.30
2023-02-27T23:58:01.716Z,95.00
